KEST/EST METAR and TAF weather

Enter ICAO airport designator
Station Type Date Time Source
KEST METAR 2019/05/26 22:52 UTC NOAA

KEST 262252Z AUTO 13004KT 10SM CLR 22/09 A3000 RMK AO2 SLP158 T02220089


Station Type Date Time Source
KEST Decoded METAR 2019/05/26 22:52 UTC NOAA

ESTHERVILLE MUNICIPAL AIRPORT , IA, United States (KEST) 43-24N 94-45W 401M
May 26, 2019 - 06:52 PM EDT / 2019.05.26 2252 UTC
Wind: from the SE (130 degrees) at 5 MPH (4 KT):0
Visibility: 10 mile(s):0
Sky conditions: clear
Temperature: 72.0 F (22.2 C)
Dew Point: 48.0 F (8.9 C)
Relative Humidity: 42%
Pressure (altimeter): 30 in. Hg (1015 hPa)
ob: KEST 262252Z AUTO 13004KT 10SM CLR 22/09 A3000 RMK AO2 SLP158 T02220089
cycle: 23

Station Type Date Time Source
KEST TAF UTC NOAA

Error!

Example: see airport list